sensor_id;sensor_type;location;lat;lon;timestamp;P1;durP1;ratioP1;P2;durP2;ratioP2
24995;SDS011;13016;52.162;21.034;2024-03-23T01:06:54;20.10;;;13.00;;
24995;SDS011;13016;52.162;21.034;2024-03-23T01:13:07;21.10;;;12.90;;
24995;SDS011;13016;52.162;21.034;2024-03-23T01:19:14;22.20;;;13.20;;
24995;SDS011;13016;52.162;21.034;2024-03-23T01:38:57;19.40;;;12.60;;
24995;SDS011;13016;52.162;21.034;2024-03-23T01:45:13;21.20;;;13.30;;
24995;SDS011;13016;52.162;21.034;2024-03-23T01:58:39;19.60;;;13.00;;
24995;SDS011;13016;52.162;21.034;2024-03-23T02:05:21;21.80;;;13.20;;
24995;SDS011;13016;52.162;21.034;2024-03-23T02:12:01;22.20;;;13.50;;
24995;SDS011;13016;52.162;21.034;2024-03-23T02:18:43;22.40;;;12.80;;
24995;SDS011;13016;52.162;21.034;2024-03-23T02:26:03;23.90;;;13.20;;
24995;SDS011;13016;52.162;21.034;2024-03-23T02:32:16;19.30;;;12.70;;
24995;SDS011;13016;52.162;21.034;2024-03-23T02:38:56;22.40;;;13.80;;
24995;SDS011;13016;52.162;21.034;2024-03-23T02:45:09;21.70;;;13.90;;
24995;SDS011;13016;52.162;21.034;2024-03-23T02:51:50;21.30;;;12.80;;
24995;SDS011;13016;52.162;21.034;2024-03-23T02:58:30;23.20;;;13.20;;
24995;SDS011;13016;52.162;21.034;2024-03-23T03:05:13;22.40;;;14.00;;
24995;SDS011;13016;52.162;21.034;2024-03-23T03:12:03;21.10;;;14.00;;
24995;SDS011;13016;52.162;21.034;2024-03-23T03:18:43;23.10;;;13.30;;
24995;SDS011;13016;52.162;21.034;2024-03-23T03:25:22;22.10;;;13.30;;
24995;SDS011;13016;52.162;21.034;2024-03-23T03:32:11;20.50;;;12.90;;
24995;SDS011;13016;52.162;21.034;2024-03-23T03:39:06;20.90;;;14.30;;
24995;SDS011;13016;52.162;21.034;2024-03-23T03:46:02;24.40;;;14.20;;
24995;SDS011;13016;52.162;21.034;2024-03-23T03:52:26;20.20;;;13.10;;
24995;SDS011;13016;52.162;21.034;2024-03-23T04:02:19;21.10;;;13.60;;
24995;SDS011;13016;52.162;21.034;2024-03-23T04:15:29;20.30;;;13.80;;
24995;SDS011;13016;52.162;21.034;2024-03-23T04:21:32;21.40;;;13.40;;
24995;SDS011;13016;52.162;21.034;2024-03-23T04:27:52;21.20;;;13.50;;
24995;SDS011;13016;52.162;21.034;2024-03-23T04:33:53;21.20;;;13.60;;
24995;SDS011;13016;52.162;21.034;2024-03-23T05:32:23;22.80;;;15.00;;
24995;SDS011;13016;52.162;21.034;2024-03-23T05:38:24;25.70;;;15.60;;
24995;SDS011;13016;52.162;21.034;2024-03-23T05:44:25;24.50;;;15.10;;
24995;SDS011;13016;52.162;21.034;2024-03-23T06:37:40;24.60;;;15.80;;
24995;SDS011;13016;52.162;21.034;2024-03-23T07:02:44;21.90;;;14.70;;
24995;SDS011;13016;52.162;21.034;2024-03-23T07:09:23;25.20;;;14.90;;
24995;SDS011;13016;52.162;21.034;2024-03-23T07:19:16;22.60;;;14.20;;
24995;SDS011;13016;52.162;21.034;2024-03-23T07:26:01;21.60;;;14.30;;
24995;SDS011;13016;52.162;21.034;2024-03-23T08:00:19;24.50;;;15.10;;
24995;SDS011;13016;52.162;21.034;2024-03-23T09:54:16;15.90;;;10.40;;
24995;SDS011;13016;52.162;21.034;2024-03-23T10:24:48;13.00;;;8.70;;
24995;SDS011;13016;52.162;21.034;2024-03-23T10:49:37;12.10;;;8.20;;
24995;SDS011;13016;52.162;21.034;2024-03-23T11:24:31;9.90;;;6.60;;
24995;SDS011;13016;52.162;21.034;2024-03-23T11:44:30;11.60;;;7.30;;
24995;SDS011;13016;52.162;21.034;2024-03-23T11:57:08;11.30;;;6.50;;
24995;SDS011;13016;52.162;21.034;2024-03-23T12:03:20;10.40;;;7.40;;
24995;SDS011;13016;52.162;21.034;2024-03-23T12:19:22;10.60;;;7.20;;
24995;SDS011;13016;52.162;21.034;2024-03-23T12:25:22;9.80;;;7.30;;
24995;SDS011;13016;52.162;21.034;2024-03-23T12:31:23;8.40;;;6.40;;
24995;SDS011;13016;52.162;21.034;2024-03-23T12:37:23;10.10;;;6.40;;
24995;SDS011;13016;52.162;21.034;2024-03-23T12:43:23;8.90;;;6.50;;
24995;SDS011;13016;52.162;21.034;2024-03-23T12:49:24;7.50;;;6.00;;
24995;SDS011;13016;52.162;21.034;2024-03-23T12:55:24;7.60;;;5.70;;
24995;SDS011;13016;52.162;21.034;2024-03-23T13:01:25;9.20;;;6.50;;
24995;SDS011;13016;52.162;21.034;2024-03-23T13:07:25;9.90;;;6.10;;
24995;SDS011;13016;52.162;21.034;2024-03-23T13:13:25;8.90;;;5.90;;
24995;SDS011;13016;52.162;21.034;2024-03-23T13:19:26;13.10;;;6.20;;
24995;SDS011;13016;52.162;21.034;2024-03-23T13:25:26;10.10;;;6.30;;
24995;SDS011;13016;52.162;21.034;2024-03-23T13:31:28;8.80;;;6.00;;
24995;SDS011;13016;52.162;21.034;2024-03-23T13:37:28;7.20;;;5.20;;
24995;SDS011;13016;52.162;21.034;2024-03-23T13:43:29;8.80;;;6.30;;
24995;SDS011;13016;52.162;21.034;2024-03-23T13:49:30;9.20;;;5.70;;
24995;SDS011;13016;52.162;21.034;2024-03-23T13:55:31;7.50;;;5.90;;
24995;SDS011;13016;52.162;21.034;2024-03-23T14:01:32;9.00;;;6.10;;
24995;SDS011;13016;52.162;21.034;2024-03-23T14:07:32;11.00;;;5.60;;
24995;SDS011;13016;52.162;21.034;2024-03-23T14:13:33;8.20;;;6.00;;
24995;SDS011;13016;52.162;21.034;2024-03-23T14:19:33;9.50;;;6.20;;
24995;SDS011;13016;52.162;21.034;2024-03-23T14:25:34;11.80;;;6.20;;
24995;SDS011;13016;52.162;21.034;2024-03-23T14:31:34;8.20;;;5.90;;
24995;SDS011;13016;52.162;21.034;2024-03-23T14:37:35;8.30;;;6.10;;
24995;SDS011;13016;52.162;21.034;2024-03-23T14:43:36;7.90;;;5.60;;
24995;SDS011;13016;52.162;21.034;2024-03-23T14:49:37;9.50;;;6.10;;
24995;SDS011;13016;52.162;21.034;2024-03-23T14:55:37;10.80;;;6.50;;
24995;SDS011;13016;52.162;21.034;2024-03-23T15:01:37;10.50;;;7.00;;
24995;SDS011;13016;52.162;21.034;2024-03-23T15:07:38;10.20;;;6.20;;
24995;SDS011;13016;52.162;21.034;2024-03-23T15:13:40;12.30;;;7.40;;
24995;SDS011;13016;52.162;21.034;2024-03-23T15:19:40;11.10;;;6.00;;
24995;SDS011;13016;52.162;21.034;2024-03-23T15:25:40;9.50;;;6.50;;
24995;SDS011;13016;52.162;21.034;2024-03-23T15:31:41;10.60;;;7.20;;
24995;SDS011;13016;52.162;21.034;2024-03-23T15:37:41;10.20;;;8.00;;
24995;SDS011;13016;52.162;21.034;2024-03-23T15:43:41;15.40;;;9.60;;
24995;SDS011;13016;52.162;21.034;2024-03-23T15:50:03;15.30;;;10.40;;
24995;SDS011;13016;52.162;21.034;2024-03-23T15:56:03;18.00;;;11.70;;
24995;SDS011;13016;52.162;21.034;2024-03-23T16:08:24;14.90;;;10.60;;
24995;SDS011;13016;52.162;21.034;2024-03-23T16:20:25;10.10;;;7.50;;
24995;SDS011;13016;52.162;21.034;2024-03-23T16:26:25;10.90;;;7.70;;
24995;SDS011;13016;52.162;21.034;2024-03-23T16:32:26;10.80;;;7.50;;
24995;SDS011;13016;52.162;21.034;2024-03-23T16:38:27;9.50;;;6.70;;
24995;SDS011;13016;52.162;21.034;2024-03-23T16:44:28;10.50;;;6.30;;
24995;SDS011;13016;52.162;21.034;2024-03-23T16:50:28;8.90;;;5.90;;
24995;SDS011;13016;52.162;21.034;2024-03-23T16:56:29;7.80;;;6.20;;
24995;SDS011;13016;52.162;21.034;2024-03-23T17:02:29;8.90;;;6.00;;
24995;SDS011;13016;52.162;21.034;2024-03-23T17:15:05;8.50;;;5.20;;
24995;SDS011;13016;52.162;21.034;2024-03-23T17:21:05;6.40;;;4.80;;
24995;SDS011;13016;52.162;21.034;2024-03-23T17:27:06;7.20;;;5.10;;
24995;SDS011;13016;52.162;21.034;2024-03-23T17:33:06;6.10;;;4.80;;
24995;SDS011;13016;52.162;21.034;2024-03-23T17:39:06;8.50;;;5.40;;
24995;SDS011;13016;52.162;21.034;2024-03-23T17:45:09;7.60;;;4.70;;
24995;SDS011;13016;52.162;21.034;2024-03-23T17:51:09;9.00;;;5.40;;
24995;SDS011;13016;52.162;21.034;2024-03-23T17:57:10;8.20;;;5.20;;
24995;SDS011;13016;52.162;21.034;2024-03-23T18:03:10;8.10;;;6.10;;
24995;SDS011;13016;52.162;21.034;2024-03-23T18:09:10;8.30;;;6.20;;
24995;SDS011;13016;52.162;21.034;2024-03-23T18:15:11;7.80;;;6.20;;
24995;SDS011;13016;52.162;21.034;2024-03-23T18:21:11;8.00;;;5.80;;
24995;SDS011;13016;52.162;21.034;2024-03-23T18:27:11;10.80;;;5.80;;
24995;SDS011;13016;52.162;21.034;2024-03-23T18:33:12;8.00;;;5.80;;
24995;SDS011;13016;52.162;21.034;2024-03-23T18:39:12;9.80;;;6.50;;
24995;SDS011;13016;52.162;21.034;2024-03-23T18:45:12;7.20;;;5.30;;
24995;SDS011;13016;52.162;21.034;2024-03-23T18:51:13;5.40;;;3.30;;
24995;SDS011;13016;52.162;21.034;2024-03-23T18:57:13;7.10;;;3.30;;
24995;SDS011;13016;52.162;21.034;2024-03-23T19:03:14;3.60;;;2.40;;
24995;SDS011;13016;52.162;21.034;2024-03-23T19:09:14;3.60;;;2.50;;
24995;SDS011;13016;52.162;21.034;2024-03-23T19:15:15;4.20;;;2.20;;
24995;SDS011;13016;52.162;21.034;2024-03-23T19:21:18;3.90;;;1.40;;
24995;SDS011;13016;52.162;21.034;2024-03-23T19:27:19;1.30;;;1.20;;
24995;SDS011;13016;52.162;21.034;2024-03-23T19:33:20;1.40;;;1.30;;
24995;SDS011;13016;52.162;21.034;2024-03-23T19:39:21;1.10;;;1.00;;
24995;SDS011;13016;52.162;21.034;2024-03-23T19:45:21;2.00;;;1.50;;
24995;SDS011;13016;52.162;21.034;2024-03-23T19:51:22;2.10;;;1.20;;
24995;SDS011;13016;52.162;21.034;2024-03-23T19:57:22;1.70;;;1.30;;
24995;SDS011;13016;52.162;21.034;2024-03-23T20:03:22;2.10;;;1.40;;
24995;SDS011;13016;52.162;21.034;2024-03-23T20:09:23;1.40;;;1.30;;
24995;SDS011;13016;52.162;21.034;2024-03-23T20:15:26;2.80;;;1.80;;
24995;SDS011;13016;52.162;21.034;2024-03-23T20:27:51;1.90;;;1.60;;
24995;SDS011;13016;52.162;21.034;2024-03-23T20:33:52;1.70;;;1.60;;
24995;SDS011;13016;52.162;21.034;2024-03-23T20:39:52;2.00;;;1.70;;
24995;SDS011;13016;52.162;21.034;2024-03-23T20:45:59;2.20;;;1.60;;
24995;SDS011;13016;52.162;21.034;2024-03-23T20:52:01;2.60;;;1.90;;
24995;SDS011;13016;52.162;21.034;2024-03-23T20:58:01;4.80;;;2.10;;
24995;SDS011;13016;52.162;21.034;2024-03-23T21:04:01;4.30;;;1.90;;
24995;SDS011;13016;52.162;21.034;2024-03-23T21:10:02;3.30;;;2.40;;
24995;SDS011;13016;52.162;21.034;2024-03-23T21:16:02;4.70;;;2.10;;
24995;SDS011;13016;52.162;21.034;2024-03-23T21:22:03;3.40;;;1.90;;
24995;SDS011;13016;52.162;21.034;2024-03-23T21:28:03;2.30;;;1.80;;
24995;SDS011;13016;52.162;21.034;2024-03-23T21:34:04;3.00;;;2.20;;
24995;SDS011;13016;52.162;21.034;2024-03-23T21:40:04;3.10;;;1.90;;
24995;SDS011;13016;52.162;21.034;2024-03-23T21:46:05;4.70;;;2.60;;
24995;SDS011;13016;52.162;21.034;2024-03-23T21:52:06;2.30;;;2.00;;
24995;SDS011;13016;52.162;21.034;2024-03-23T21:58:06;3.60;;;2.60;;
24995;SDS011;13016;52.162;21.034;2024-03-23T22:04:07;3.80;;;2.70;;
24995;SDS011;13016;52.162;21.034;2024-03-23T22:10:08;4.40;;;2.80;;
24995;SDS011;13016;52.162;21.034;2024-03-23T22:16:08;6.10;;;2.90;;
24995;SDS011;13016;52.162;21.034;2024-03-23T22:22:09;5.70;;;3.10;;
24995;SDS011;13016;52.162;21.034;2024-03-23T22:28:09;4.60;;;3.00;;
24995;SDS011;13016;52.162;21.034;2024-03-23T22:34:09;4.60;;;2.80;;
24995;SDS011;13016;52.162;21.034;2024-03-23T22:40:10;4.00;;;2.80;;
24995;SDS011;13016;52.162;21.034;2024-03-23T22:46:10;7.20;;;3.00;;
24995;SDS011;13016;52.162;21.034;2024-03-23T22:52:11;7.10;;;3.30;;
24995;SDS011;13016;52.162;21.034;2024-03-23T22:58:11;4.90;;;2.60;;
24995;SDS011;13016;52.162;21.034;2024-03-23T23:04:11;4.60;;;2.60;;
24995;SDS011;13016;52.162;21.034;2024-03-23T23:10:12;5.40;;;2.80;;
24995;SDS011;13016;52.162;21.034;2024-03-23T23:16:12;8.40;;;3.90;;
24995;SDS011;13016;52.162;21.034;2024-03-23T23:22:12;9.30;;;4.10;;
24995;SDS011;13016;52.162;21.034;2024-03-23T23:28:12;7.30;;;4.30;;
24995;SDS011;13016;52.162;21.034;2024-03-23T23:34:13;26.70;;;16.80;;
24995;SDS011;13016;52.162;21.034;2024-03-23T23:40:13;8.90;;;5.00;;
24995;SDS011;13016;52.162;21.034;2024-03-23T23:46:13;9.60;;;4.50;;
24995;SDS011;13016;52.162;21.034;2024-03-23T23:52:13;7.20;;;4.50;;
24995;SDS011;13016;52.162;21.034;2024-03-23T23:58:14;7.70;;;4.50;;
